createdAt,value
2018-05-17T00:02:04.275Z,20.23
2018-05-17T00:04:31.884Z,20.20
2018-05-17T00:06:59.621Z,20.10
2018-05-17T00:09:27.263Z,20.04
2018-05-17T00:11:54.911Z,20.04
2018-05-17T00:14:22.594Z,20.01
2018-05-17T00:16:50.192Z,19.91
2018-05-17T00:19:17.896Z,19.81
2018-05-17T00:21:45.718Z,19.75
2018-05-17T00:24:13.387Z,19.74
2018-05-17T00:26:41.047Z,19.66
2018-05-17T00:29:08.729Z,19.60
2018-05-17T00:31:36.337Z,19.57
2018-05-17T00:34:04.029Z,19.56
2018-05-17T00:36:31.733Z,19.57
2018-05-17T00:38:59.352Z,19.57
2018-05-17T00:41:26.984Z,19.57
2018-05-17T00:43:55.181Z,19.55
2018-05-17T00:46:22.795Z,19.53
2018-05-17T00:48:50.404Z,19.45
2018-05-17T00:51:18.119Z,19.44
2018-05-17T00:53:45.704Z,19.47
2018-05-17T00:56:13.354Z,19.52
2018-05-17T00:58:41.165Z,19.47
2018-05-17T01:01:08.905Z,19.38
2018-05-17T01:03:36.557Z,19.36
2018-05-17T01:08:31.275Z,19.28
2018-05-17T01:10:58.962Z,19.23
2018-05-17T01:13:26.768Z,19.08
2018-05-17T01:15:54.445Z,19.02
2018-05-17T01:18:22.132Z,19.00
2018-05-17T01:20:49.970Z,18.93
2018-05-17T01:23:17.601Z,19.01
2018-05-17T01:25:45.291Z,19.01
2018-05-17T01:28:13.056Z,18.98
2018-05-17T01:30:40.661Z,19.00
2018-05-17T01:33:08.282Z,19.00
2018-05-17T01:35:35.958Z,18.96
2018-05-17T01:38:15.330Z,18.97
2018-05-17T01:40:43.417Z,18.95
2018-05-17T01:43:11.034Z,18.97
2018-05-17T01:45:38.649Z,18.99
2018-05-17T01:48:06.335Z,18.94
2018-05-17T01:50:33.960Z,18.90
2018-05-17T01:53:01.594Z,18.89
2018-05-17T01:55:29.357Z,18.84
2018-05-17T01:57:56.948Z,18.83
2018-05-17T02:00:24.599Z,18.82
2018-05-17T02:02:52.487Z,18.76
2018-05-17T02:05:20.112Z,18.79
2018-05-17T02:07:47.829Z,18.87
2018-05-17T02:10:15.505Z,18.86
2018-05-17T02:12:43.117Z,18.85
2018-05-17T02:15:10.728Z,18.74
2018-05-17T02:17:38.927Z,18.86
2018-05-17T02:20:06.538Z,18.75
2018-05-17T02:22:34.117Z,18.65
2018-05-17T02:25:01.819Z,18.58
2018-05-17T02:27:29.467Z,18.54
2018-05-17T02:29:57.200Z,18.56
2018-05-17T02:32:25.291Z,18.64
2018-05-17T02:34:52.929Z,18.72
2018-05-17T02:37:20.528Z,18.76
2018-05-17T02:39:48.344Z,18.83
2018-05-17T02:42:16.107Z,18.79
2018-05-17T02:44:43.685Z,18.75
2018-05-17T02:47:11.839Z,18.82
2018-05-17T02:49:39.455Z,18.88
2018-05-17T02:52:07.101Z,18.93
2018-05-17T02:54:34.898Z,18.93
2018-05-17T02:57:02.624Z,18.93
2018-05-17T02:59:30.234Z,18.96
2018-05-17T03:01:57.924Z,18.96
2018-05-17T03:04:25.562Z,19.02
2018-05-17T03:06:53.264Z,19.01
2018-05-17T03:09:20.912Z,19.04
2018-05-17T03:11:48.533Z,19.19
2018-05-17T03:14:16.247Z,19.19
2018-05-17T03:16:44.065Z,19.20
2018-05-17T03:19:11.789Z,19.23
2018-05-17T03:21:39.415Z,19.22
2018-05-17T03:24:07.120Z,19.28
2018-05-17T03:26:34.705Z,19.32
2018-05-17T03:29:02.355Z,19.33
2018-05-17T03:31:30.088Z,19.35
2018-05-17T03:33:57.666Z,19.35
2018-05-17T03:36:25.362Z,19.39
2018-05-17T03:38:53.989Z,19.42
2018-05-17T03:41:21.684Z,19.46
2018-05-17T03:43:49.337Z,19.41
2018-05-17T03:46:17.034Z,19.46
2018-05-17T03:48:44.684Z,19.50
2018-05-17T03:51:12.341Z,19.55
2018-05-17T03:53:40.189Z,19.71
2018-05-17T03:56:07.850Z,19.78
2018-05-17T03:58:35.514Z,19.84
2018-05-17T04:01:14.995Z,20.03
2018-05-17T04:03:54.451Z,20.17
2018-05-17T04:06:33.834Z,20.19
2018-05-17T04:09:01.597Z,20.06
2018-05-17T04:11:29.189Z,19.96
2018-05-17T04:13:57.192Z,19.83
2018-05-17T04:16:24.742Z,19.66
2018-05-17T04:18:52.391Z,19.52
2018-05-17T04:21:20.126Z,19.48
2018-05-17T04:23:47.748Z,19.46
2018-05-17T04:26:16.369Z,19.50
2018-05-17T04:28:44.479Z,19.75
2018-05-17T04:31:12.183Z,19.87
2018-05-17T04:33:39.785Z,20.15
2018-05-17T04:36:07.521Z,20.27
2018-05-17T04:38:35.103Z,20.36
2018-05-17T04:41:02.685Z,20.31
2018-05-17T04:43:30.296Z,20.27
2018-05-17T04:45:57.906Z,20.31
2018-05-17T04:48:26.573Z,20.34
2018-05-17T04:50:54.291Z,20.36
2018-05-17T04:53:21.882Z,20.27
2018-05-17T04:55:49.545Z,20.21
2018-05-17T04:58:17.418Z,20.30
2018-05-17T05:00:45.097Z,20.39
2018-05-17T05:03:12.733Z,20.50
2018-05-17T05:05:40.452Z,20.70
2018-05-17T05:08:08.054Z,20.96
2018-05-17T05:10:35.707Z,21.03
2018-05-17T05:13:03.887Z,20.91
2018-05-17T05:15:37.854Z,21.05
2018-05-17T05:18:06.084Z,21.13
2018-05-17T05:20:33.708Z,21.42
2018-05-17T05:23:01.359Z,21.60
2018-05-17T05:25:29.290Z,21.65
2018-05-17T05:27:56.912Z,22.04
2018-05-17T05:30:24.517Z,22.20
2018-05-17T05:32:52.499Z,22.19
2018-05-17T05:35:20.074Z,22.06
2018-05-17T05:37:47.670Z,22.12
2018-05-17T05:40:15.382Z,22.49
2018-05-17T05:42:42.961Z,22.65
2018-05-17T05:45:10.572Z,22.65
2018-05-17T05:47:39.088Z,23.26
2018-05-17T05:50:06.712Z,23.59
2018-05-17T05:52:34.289Z,24.16
2018-05-17T05:55:02.094Z,24.26
2018-05-17T05:57:29.719Z,24.53
2018-05-17T05:59:57.281Z,24.54
2018-05-17T06:02:24.998Z,24.58
2018-05-17T06:04:52.983Z,24.23
2018-05-17T06:07:20.543Z,23.90
2018-05-17T06:09:48.296Z,23.68
2018-05-17T06:12:15.885Z,23.26
2018-05-17T06:14:43.440Z,23.35
2018-05-17T06:17:11.379Z,22.97
2018-05-17T06:19:38.926Z,23.20
2018-05-17T06:22:06.474Z,22.94
2018-05-17T06:24:34.563Z,22.91
2018-05-17T06:27:02.126Z,23.05
2018-05-17T06:29:29.683Z,22.89
2018-05-17T06:31:57.412Z,23.12
2018-05-17T06:34:24.983Z,23.08
2018-05-17T06:36:52.576Z,23.08
2018-05-17T06:39:20.311Z,23.11
2018-05-17T06:41:47.870Z,23.22
2018-05-17T06:44:15.449Z,23.32
2018-05-17T06:46:43.049Z,23.22
2018-05-17T06:49:10.594Z,23.24
2018-05-17T06:51:38.230Z,23.14
2018-05-17T06:54:06.267Z,23.08
2018-05-17T06:56:33.850Z,23.19
2018-05-17T06:59:01.416Z,23.17
2018-05-17T07:01:30.468Z,23.34
2018-05-17T07:03:58.037Z,23.50
2018-05-17T07:06:25.605Z,23.40
2018-05-17T07:08:53.354Z,23.12
2018-05-17T07:11:20.917Z,23.45
2018-05-17T07:13:48.472Z,23.74
2018-05-17T07:16:16.062Z,23.83
2018-05-17T07:18:44.001Z,23.68
2018-05-17T07:21:11.226Z,23.80
2018-05-17T07:23:39.219Z,23.95
2018-05-17T07:26:06.792Z,24.03
2018-05-17T07:28:34.351Z,24.14
2018-05-17T07:31:02.398Z,23.89
2018-05-17T07:33:29.986Z,24.14
2018-05-17T07:35:57.554Z,24.35
2018-05-17T07:38:25.545Z,24.43
2018-05-17T07:40:53.120Z,24.55
2018-05-17T07:43:20.692Z,23.63
2018-05-17T07:45:48.282Z,23.99
2018-05-17T07:48:15.837Z,24.38
2018-05-17T07:50:43.390Z,24.81
2018-05-17T07:53:10.975Z,25.28
2018-05-17T07:55:38.606Z,25.57
2018-05-17T07:58:06.148Z,25.64
2018-05-17T08:00:33.931Z,25.46
2018-05-17T08:03:01.529Z,25.70
2018-05-17T08:05:29.110Z,25.67
2018-05-17T08:07:57.074Z,24.91
2018-05-17T08:10:24.659Z,25.06
2018-05-17T08:12:52.313Z,25.13
2018-05-17T08:15:20.004Z,25.08
2018-05-17T08:17:47.569Z,25.00
2018-05-17T08:20:15.104Z,25.36
2018-05-17T08:22:42.855Z,25.61
2018-05-17T08:25:10.445Z,25.15
2018-05-17T08:27:38.010Z,25.46
2018-05-17T08:30:06.008Z,25.68
2018-05-17T08:32:33.592Z,25.88
2018-05-17T08:35:01.184Z,26.09
2018-05-17T08:37:28.776Z,26.36
2018-05-17T08:39:56.336Z,26.71
2018-05-17T08:42:23.896Z,26.85
2018-05-17T08:44:52.250Z,26.98
2018-05-17T08:47:19.797Z,27.17
2018-05-17T08:49:47.364Z,26.99
2018-05-17T08:52:15.091Z,27.05
2018-05-17T08:54:42.646Z,26.88
2018-05-17T08:57:10.201Z,27.24
2018-05-17T08:59:38.166Z,27.51
2018-05-17T09:02:05.711Z,27.48
2018-05-17T09:04:33.262Z,27.76
2018-05-17T09:07:01.019Z,27.92
2018-05-17T09:09:28.601Z,27.84
2018-05-17T09:11:56.171Z,27.92
2018-05-17T09:14:23.802Z,27.98
2018-05-17T09:16:51.355Z,27.97
2018-05-17T09:19:18.922Z,27.73
2018-05-17T09:21:46.537Z,27.90
2018-05-17T09:24:14.097Z,27.73
2018-05-17T09:26:41.674Z,27.98
2018-05-17T09:29:09.335Z,27.64
2018-05-17T09:31:36.867Z,27.83
2018-05-17T09:34:04.469Z,27.92
2018-05-17T09:36:32.386Z,27.73
2018-05-17T09:38:59.985Z,27.51
2018-05-17T09:41:27.625Z,27.72
2018-05-17T09:43:55.689Z,27.57
2018-05-17T09:46:23.296Z,27.85
2018-05-17T09:55:34.081Z,27.18
2018-05-17T09:58:01.693Z,27.41
2018-05-17T10:00:31.208Z,27.88
2018-05-17T10:02:59.915Z,28.00
2018-05-17T10:05:27.520Z,28.14
2018-05-17T10:07:55.045Z,28.50
2018-05-17T10:10:22.646Z,28.64
2018-05-17T10:12:50.215Z,28.94
2018-05-17T10:15:17.769Z,28.94
2018-05-17T10:17:45.393Z,29.09
2018-05-17T10:20:12.948Z,29.22
2018-05-17T10:22:40.519Z,29.52
2018-05-17T10:25:08.169Z,29.11
2018-05-17T10:27:35.744Z,28.66
2018-05-17T10:30:03.463Z,28.95
2018-05-17T10:32:31.237Z,29.00
2018-05-17T10:34:58.799Z,29.21
2018-05-17T10:37:26.385Z,29.52
2018-05-17T10:39:54.463Z,29.34
2018-05-17T10:42:22.018Z,29.40
2018-05-17T10:44:49.589Z,29.69
2018-05-17T10:47:17.375Z,29.79
2018-05-17T10:49:44.922Z,29.46
2018-05-17T10:52:12.465Z,29.69
2018-05-17T10:54:40.565Z,30.18
2018-05-17T10:57:08.114Z,30.30
2018-05-17T10:59:35.718Z,30.38
2018-05-17T11:02:03.290Z,30.49
2018-05-17T11:04:30.854Z,30.22
2018-05-17T11:06:58.408Z,30.46
2018-05-17T11:09:25.977Z,30.43
2018-05-17T11:11:53.576Z,30.38
2018-05-17T11:14:21.135Z,30.70
2018-05-17T11:16:49.122Z,30.47
2018-05-17T11:19:16.678Z,30.58
2018-05-17T11:21:44.252Z,30.39
2018-05-17T11:24:12.132Z,29.99
2018-05-17T11:26:39.733Z,30.23
2018-05-17T11:29:07.263Z,30.52
2018-05-17T11:31:34.868Z,30.64
2018-05-17T11:34:02.435Z,30.22
2018-05-17T11:36:30.015Z,30.03
2018-05-17T11:38:57.607Z,30.18
2018-05-17T11:41:25.164Z,28.95
2018-05-17T11:43:52.823Z,28.94
2018-05-17T11:46:20.430Z,29.23
2018-05-17T11:48:47.989Z,29.37
2018-05-17T11:51:15.538Z,30.01
2018-05-17T11:53:43.115Z,30.65
2018-05-17T11:56:10.658Z,30.97
2018-05-17T11:58:38.234Z,30.49
2018-05-17T12:01:06.165Z,29.79
2018-05-17T12:03:33.908Z,30.04
2018-05-17T12:06:01.474Z,30.47
2018-05-17T12:08:29.062Z,30.76
2018-05-17T12:10:56.627Z,31.00
2018-05-17T12:13:24.194Z,31.32
2018-05-17T12:15:51.808Z,31.05
2018-05-17T12:18:19.369Z,31.24
2018-05-17T12:20:46.955Z,31.23
2018-05-17T12:23:14.623Z,31.02
2018-05-17T12:25:42.182Z,31.25
2018-05-17T12:28:09.708Z,31.40
2018-05-17T12:30:37.534Z,31.63
2018-05-17T12:33:05.105Z,31.64
2018-05-17T12:35:32.666Z,31.61
2018-05-17T12:38:00.295Z,31.84
2018-05-17T12:40:27.853Z,31.98
2018-05-17T12:42:55.425Z,31.65
2018-05-17T12:45:23.165Z,31.09
2018-05-17T12:47:50.767Z,31.32
2018-05-17T12:50:18.325Z,31.48
2018-05-17T12:52:46.319Z,31.01
2018-05-17T12:55:13.872Z,30.88
2018-05-17T12:57:41.458Z,30.78
2018-05-17T13:00:09.062Z,30.82
2018-05-17T13:02:39.938Z,30.63
2018-05-17T13:05:24.290Z,30.37
2018-05-17T13:07:51.873Z,30.35
2018-05-17T13:10:19.502Z,30.07
2018-05-17T13:12:47.411Z,29.81
2018-05-17T13:15:15.014Z,29.73
2018-05-17T13:17:42.570Z,29.90
2018-05-17T13:20:12.558Z,29.99
2018-05-17T13:22:40.134Z,30.07
2018-05-17T13:25:07.723Z,30.02
2018-05-17T13:27:35.591Z,29.91
2018-05-17T13:30:03.166Z,29.71
2018-05-17T13:32:30.733Z,29.86
2018-05-17T13:34:58.324Z,29.94
2018-05-17T13:37:25.905Z,30.08
2018-05-17T13:39:53.458Z,30.07
2018-05-17T13:42:21.186Z,30.11
2018-05-17T13:44:48.738Z,30.30
2018-05-17T13:47:16.296Z,30.46
2018-05-17T13:49:43.945Z,30.45
2018-05-17T13:52:11.482Z,30.35
2018-05-17T13:54:39.048Z,30.41
2018-05-17T13:57:06.641Z,30.45
2018-05-17T13:59:34.185Z,29.96
2018-05-17T14:02:01.737Z,29.79
2018-05-17T14:04:29.539Z,29.71
2018-05-17T14:06:57.090Z,29.66
2018-05-17T14:09:24.633Z,29.67
2018-05-17T14:11:52.382Z,29.62
2018-05-17T14:14:19.945Z,29.46
2018-05-17T14:16:47.490Z,29.29
2018-05-17T14:19:15.250Z,29.11
2018-05-17T14:21:42.822Z,29.13
2018-05-17T14:24:10.386Z,29.07
2018-05-17T14:26:37.969Z,29.14
2018-05-17T14:29:05.544Z,29.00
2018-05-17T14:31:33.124Z,28.97
2018-05-17T14:34:00.902Z,28.96
2018-05-17T14:36:28.450Z,28.79
2018-05-17T14:38:56.106Z,28.42
2018-05-17T14:41:24.281Z,28.28
2018-05-17T14:43:51.837Z,28.29
2018-05-17T14:46:19.482Z,28.36
2018-05-17T14:48:47.381Z,28.49
2018-05-17T14:51:15.032Z,28.51
2018-05-17T14:53:43.269Z,28.58
2018-05-17T14:56:11.268Z,28.64
2018-05-17T14:58:38.844Z,28.70
2018-05-17T15:01:06.499Z,28.60
2018-05-17T15:03:34.327Z,28.49
2018-05-17T15:06:01.917Z,28.31
2018-05-17T15:08:29.510Z,28.15
2018-05-17T15:10:59.342Z,28.06
2018-05-17T15:13:24.775Z,27.91
2018-05-17T15:15:52.442Z,27.91
2018-05-17T15:18:20.222Z,27.87
2018-05-17T15:20:47.801Z,27.86
2018-05-17T15:23:15.394Z,27.86
2018-05-17T15:25:44.198Z,27.99
2018-05-17T15:28:11.772Z,28.00
2018-05-17T15:30:39.374Z,27.96
2018-05-17T15:33:07.082Z,27.98
2018-05-17T15:35:34.708Z,27.72
2018-05-17T15:38:02.440Z,27.41
2018-05-17T15:40:30.070Z,27.15
2018-05-17T15:43:00.987Z,27.09
2018-05-17T15:45:28.666Z,27.07
2018-05-17T15:47:56.375Z,27.20
2018-05-17T15:50:24.028Z,27.27
2018-05-17T15:52:51.591Z,27.34
2018-05-17T15:55:24.102Z,27.38
2018-05-17T15:57:54.922Z,27.27
2018-05-17T16:00:22.667Z,27.23
2018-05-17T16:02:50.985Z,27.17
2018-05-17T16:05:18.573Z,27.07
2018-05-17T16:07:52.189Z,27.10
2018-05-17T16:10:19.768Z,26.98
2018-05-17T16:12:47.338Z,27.00
2018-05-17T16:15:15.119Z,26.88
2018-05-17T16:17:42.607Z,26.75
2018-05-17T16:20:10.194Z,26.66
2018-05-17T16:22:38.175Z,26.68
2018-05-17T16:25:05.783Z,26.71
2018-05-17T16:27:33.359Z,26.63
2018-05-17T16:30:01.012Z,26.58
2018-05-17T16:32:28.586Z,26.64
2018-05-17T16:34:56.171Z,26.65
2018-05-17T16:37:24.150Z,26.56
2018-05-17T16:39:51.735Z,26.51
2018-05-17T16:42:20.261Z,26.42
2018-05-17T16:44:47.890Z,26.48
2018-05-17T16:47:15.482Z,26.39
2018-05-17T16:49:43.105Z,26.35
2018-05-17T16:52:10.859Z,26.40
2018-05-17T16:54:38.430Z,26.34
2018-05-17T16:57:06.082Z,26.28
2018-05-17T16:59:33.866Z,26.33
2018-05-17T17:02:01.478Z,26.24
2018-05-17T17:04:29.051Z,26.21
2018-05-17T17:07:00.371Z,26.07
2018-05-17T17:09:27.978Z,25.99
2018-05-17T17:11:55.604Z,25.93
2018-05-17T17:14:23.392Z,25.84
2018-05-17T17:16:50.975Z,25.74
2018-05-17T17:19:18.538Z,25.68
2018-05-17T17:21:46.507Z,25.57
2018-05-17T17:24:14.089Z,25.50
2018-05-17T17:26:47.755Z,25.35
2018-05-17T17:29:15.342Z,25.23
2018-05-17T17:31:42.930Z,25.11
2018-05-17T17:34:10.720Z,25.01
2018-05-17T17:36:38.456Z,24.87
2018-05-17T17:39:06.898Z,24.72
2018-05-17T17:41:34.922Z,24.61
2018-05-17T17:44:02.490Z,24.47
2018-05-17T17:46:30.165Z,24.33
2018-05-17T17:48:57.776Z,24.26
2018-05-17T17:51:25.364Z,24.22
2018-05-17T17:53:52.928Z,24.15
2018-05-17T17:56:20.526Z,24.11
2018-05-17T17:58:48.098Z,24.14
2018-05-17T18:01:16.579Z,24.13
2018-05-17T18:03:44.332Z,24.04
2018-05-17T18:06:11.967Z,23.96
2018-05-17T18:08:39.579Z,23.86
2018-05-17T18:11:07.586Z,23.78
2018-05-17T18:13:35.180Z,23.70
2018-05-17T18:16:02.763Z,23.59
2018-05-17T18:18:31.398Z,23.51
2018-05-17T18:20:58.958Z,23.42
2018-05-17T18:23:26.552Z,23.33
2018-05-17T18:25:54.438Z,23.20
2018-05-17T18:28:22.171Z,23.09
2018-05-17T18:30:49.828Z,23.00
2018-05-17T18:33:17.499Z,22.91
2018-05-17T18:35:45.223Z,22.81
2018-05-17T18:38:12.825Z,22.73
2018-05-17T18:40:41.486Z,22.64
2018-05-17T18:43:09.948Z,22.60
2018-05-17T18:45:43.681Z,22.53
2018-05-17T18:48:11.652Z,22.45
2018-05-17T18:50:40.226Z,22.37
2018-05-17T18:53:11.099Z,22.31
2018-05-17T18:55:40.149Z,22.25
2018-05-17T18:58:07.831Z,22.22
2018-05-17T19:00:35.496Z,22.18
2018-05-17T19:03:12.203Z,22.13
2018-05-17T19:05:40.068Z,22.11
2018-05-17T19:08:07.902Z,22.10
2018-05-17T19:10:35.574Z,22.08
2018-05-17T19:13:03.242Z,22.15
2018-05-17T19:15:31.030Z,22.11
2018-05-17T19:17:58.716Z,22.07
2018-05-17T19:20:26.410Z,22.07
2018-05-17T19:22:54.101Z,21.96
2018-05-17T19:25:22.721Z,21.84
2018-05-17T19:27:50.464Z,21.76
2018-05-17T19:30:18.263Z,21.65
2018-05-17T19:32:45.936Z,21.60
2018-05-17T19:35:13.603Z,21.51
2018-05-17T19:37:41.557Z,21.43
2018-05-17T19:40:11.691Z,21.43
2018-05-17T19:42:54.124Z,21.35
2018-05-17T19:45:21.933Z,21.44
2018-05-17T19:50:30.065Z,21.44
2018-05-17T19:52:58.039Z,21.64
2018-05-17T19:55:25.596Z,21.56
2018-05-17T19:57:53.296Z,21.50
2018-05-17T20:00:22.491Z,21.51
2018-05-17T20:02:50.469Z,21.40
2018-05-17T20:05:26.244Z,21.36
2018-05-17T20:07:54.296Z,21.40
2018-05-17T20:10:22.045Z,21.30
2018-05-17T20:12:51.731Z,21.19
2018-05-17T20:15:21.104Z,21.22
2018-05-17T20:17:48.749Z,21.19
2018-05-17T20:20:19.135Z,21.27
2018-05-17T20:22:46.975Z,21.22
2018-05-17T20:25:14.687Z,21.22
2018-05-17T20:27:42.605Z,21.26
2018-05-17T20:30:10.227Z,21.31
2018-05-17T20:32:37.919Z,21.39
2018-05-17T20:35:05.599Z,21.46
2018-05-17T20:37:34.273Z,21.49
2018-05-17T20:40:01.898Z,21.40
2018-05-17T20:42:29.758Z,21.23
2018-05-17T20:44:57.432Z,21.02
2018-05-17T20:47:25.049Z,20.82
2018-05-17T20:49:52.744Z,20.68
2018-05-17T20:52:22.442Z,20.61
2018-05-17T20:54:50.852Z,20.50
2018-05-17T20:57:19.125Z,20.40
2018-05-17T20:59:46.950Z,20.39
2018-05-17T21:02:14.527Z,20.40
2018-05-17T21:04:42.414Z,20.26
2018-05-17T21:07:10.060Z,20.23
2018-05-17T21:09:37.678Z,20.25
2018-05-17T21:12:05.494Z,20.28
2018-05-17T21:14:33.203Z,20.33
2018-05-17T21:17:00.907Z,20.32
2018-05-17T21:19:28.596Z,20.18
2018-05-17T21:21:56.226Z,20.13
2018-05-17T21:24:24.921Z,20.10
2018-05-17T21:26:53.027Z,20.14
2018-05-17T21:29:20.616Z,20.13
2018-05-17T21:31:48.277Z,20.12
2018-05-17T21:34:15.951Z,20.08
2018-05-17T21:36:44.617Z,19.98
2018-05-17T21:39:12.329Z,19.90
2018-05-17T21:41:40.263Z,19.90
2018-05-17T21:44:08.009Z,19.83
2018-05-17T21:46:35.650Z,19.79
2018-05-17T21:49:03.332Z,19.85
2018-05-17T21:51:30.975Z,19.71
2018-05-17T21:53:58.615Z,19.65
2018-05-17T21:56:26.795Z,19.55
2018-05-17T21:58:54.385Z,19.50
2018-05-17T22:01:31.778Z,19.45
2018-05-17T22:03:59.504Z,19.40
2018-05-17T22:06:27.167Z,19.42
2018-05-17T22:08:55.223Z,19.40
2018-05-17T22:11:22.907Z,19.44
2018-05-17T22:13:51.561Z,19.40
2018-05-17T22:16:21.453Z,19.41
2018-05-17T22:18:49.146Z,19.33
2018-05-17T22:21:16.771Z,19.27
2018-05-17T22:23:44.627Z,19.23
2018-05-17T22:26:12.308Z,19.20
2018-05-17T22:28:39.970Z,19.14
2018-05-17T22:31:07.714Z,19.09
2018-05-17T22:33:35.336Z,19.11
2018-05-17T22:36:03.009Z,19.09
2018-05-17T22:38:30.664Z,19.04
2018-05-17T22:40:58.504Z,19.04
2018-05-17T22:43:26.233Z,19.04
2018-05-17T22:45:54.010Z,19.01
2018-05-17T22:48:21.699Z,19.00
2018-05-17T22:50:49.358Z,18.96
2018-05-17T22:53:17.169Z,18.93
2018-05-17T22:55:44.860Z,18.92
2018-05-17T22:58:24.716Z,18.89
2018-05-17T23:00:52.483Z,18.88
2018-05-17T23:03:20.098Z,18.89
2018-05-17T23:05:48.016Z,18.98
2018-05-17T23:08:15.668Z,19.00
2018-05-17T23:10:43.316Z,18.94
2018-05-17T23:13:11.139Z,18.85
2018-05-17T23:15:38.863Z,18.82
2018-05-17T23:18:06.475Z,18.83
2018-05-17T23:20:34.610Z,18.78
2018-05-17T23:23:07.882Z,18.68
2018-05-17T23:25:37.984Z,18.63
2018-05-17T23:28:05.763Z,18.57
2018-05-17T23:30:33.372Z,18.58
2018-05-17T23:33:01.280Z,18.58
2018-05-17T23:35:28.878Z,18.56
2018-05-17T23:37:56.537Z,18.53
2018-05-17T23:40:36.398Z,18.43
2018-05-17T23:43:03.996Z,18.36
2018-05-17T23:45:31.578Z,18.32
2018-05-17T23:47:59.488Z,18.29
2018-05-17T23:50:27.116Z,18.33
2018-05-17T23:52:54.792Z,18.37
2018-05-17T23:55:22.488Z,18.36
2018-05-17T23:57:50.178Z,18.33
